createdAt,value
2018-11-27T00:00:31.900Z,95.80
2018-11-27T00:03:01.687Z,96.00
2018-11-27T00:05:31.322Z,95.70
2018-11-27T00:08:00.092Z,95.70
2018-11-27T00:10:30.076Z,95.70
2018-11-27T00:12:58.849Z,95.60
2018-11-27T00:15:27.561Z,95.60
2018-11-27T00:17:56.397Z,95.60
2018-11-27T00:20:25.236Z,95.60
2018-11-27T00:22:54.001Z,95.70
2018-11-27T00:25:22.665Z,95.70
2018-11-27T00:27:52.069Z,95.60
2018-11-27T00:30:21.658Z,95.60
2018-11-27T00:32:50.399Z,95.60
2018-11-27T00:35:20.125Z,95.60
2018-11-27T00:37:49.250Z,95.60
2018-11-27T00:40:20.909Z,95.60
2018-11-27T00:42:49.850Z,95.80
2018-11-27T00:45:19.740Z,95.60
2018-11-27T00:47:50.307Z,95.80
2018-11-27T00:50:22.117Z,95.70
2018-11-27T00:52:50.854Z,95.80
2018-11-27T00:55:21.134Z,95.60
2018-11-27T00:57:51.863Z,95.60
2018-11-27T01:00:21.491Z,95.60
2018-11-27T01:02:50.262Z,95.80
2018-11-27T01:05:20.386Z,95.80
2018-11-27T01:07:49.077Z,95.80
2018-11-27T01:10:22.571Z,95.90
2018-11-27T01:12:51.354Z,95.90
2018-11-27T01:15:20.116Z,96.00
2018-11-27T01:17:50.889Z,96.00
2018-11-27T01:20:21.513Z,96.00
2018-11-27T01:22:50.288Z,95.90
2018-11-27T01:25:19.289Z,95.90
2018-11-27T01:27:47.964Z,95.80
2018-11-27T01:30:18.650Z,95.80
2018-11-27T01:32:47.561Z,95.80
2018-11-27T01:35:18.444Z,95.90
2018-11-27T01:37:47.757Z,95.80
2018-11-27T01:40:20.507Z,95.90
2018-11-27T01:42:50.658Z,96.00
2018-11-27T01:45:20.404Z,95.90
2018-11-27T01:47:49.465Z,95.80
2018-11-27T01:50:19.010Z,95.90
2018-11-27T01:52:48.058Z,95.90
2018-11-27T01:55:18.752Z,95.80
2018-11-27T01:57:47.589Z,95.80
2018-11-27T02:00:29.288Z,95.80
2018-11-27T02:02:59.249Z,95.80
2018-11-27T02:05:28.249Z,95.70
2018-11-27T02:07:56.991Z,95.80
2018-11-27T02:10:25.718Z,95.80
2018-11-27T02:13:01.174Z,95.80
2018-11-27T02:15:26.403Z,96.10
2018-11-27T02:17:55.173Z,95.80
2018-11-27T02:20:23.966Z,95.80
2018-11-27T02:22:52.588Z,95.80
2018-11-27T02:25:22.547Z,95.80
2018-11-27T02:27:51.350Z,95.90
2018-11-27T02:30:21.682Z,95.80
2018-11-27T02:32:50.474Z,95.80
2018-11-27T02:35:20.167Z,95.80
2018-11-27T02:37:50.004Z,95.80
2018-11-27T02:40:19.011Z,95.90
2018-11-27T02:42:47.795Z,95.90
2018-11-27T02:45:18.795Z,96.00
2018-11-27T02:47:48.274Z,96.00
2018-11-27T02:50:18.240Z,96.00
2018-11-27T02:52:47.425Z,96.10
2018-11-27T02:55:18.094Z,96.00
2018-11-27T02:57:46.818Z,95.80
2018-11-27T03:00:19.568Z,95.80
2018-11-27T03:02:48.976Z,95.80
2018-11-27T03:05:19.499Z,96.00
2018-11-27T03:07:48.365Z,96.10
2018-11-27T03:10:17.277Z,96.00
2018-11-27T03:12:46.373Z,96.20
2018-11-27T03:15:16.350Z,96.10
2018-11-27T03:17:45.115Z,96.20
2018-11-27T03:20:15.042Z,96.20
2018-11-27T03:22:43.802Z,96.20
2018-11-27T03:25:15.536Z,96.10
2018-11-27T03:27:44.862Z,96.00
2018-11-27T03:30:18.949Z,96.00
2018-11-27T03:32:47.684Z,95.90
2018-11-27T03:35:19.183Z,96.20
2018-11-27T03:37:48.178Z,96.10
2018-11-27T03:40:21.051Z,96.10
2018-11-27T03:42:49.868Z,96.10
2018-11-27T03:45:19.075Z,96.20
2018-11-27T03:47:47.802Z,96.30
2018-11-27T03:50:17.504Z,96.30
2018-11-27T03:52:46.376Z,96.20
2018-11-27T03:55:15.117Z,96.20
2018-11-27T03:57:43.770Z,96.30
2018-11-27T04:00:14.904Z,96.20
2018-11-27T04:02:43.996Z,96.20
2018-11-27T04:05:13.567Z,96.60
2018-11-27T04:07:42.355Z,96.10
2018-11-27T04:10:15.098Z,96.30
2018-11-27T04:12:43.765Z,96.50
2018-11-27T04:15:12.837Z,96.50
2018-11-27T04:17:41.810Z,96.50
2018-11-27T04:20:11.545Z,96.40
2018-11-27T04:22:40.745Z,96.50
2018-11-27T04:25:12.678Z,96.60
2018-11-27T04:27:41.488Z,96.60
2018-11-27T04:30:14.816Z,96.60
2018-11-27T04:32:43.534Z,96.70
2018-11-27T04:35:14.487Z,96.60
2018-11-27T04:37:43.182Z,96.50
2018-11-27T04:40:14.706Z,96.50
2018-11-27T04:42:43.335Z,96.60
2018-11-27T04:45:17.985Z,96.50
2018-11-27T04:47:46.650Z,96.40
2018-11-27T04:50:16.284Z,96.40
2018-11-27T04:52:47.909Z,96.40
2018-11-27T04:55:17.716Z,96.60
2018-11-27T04:57:47.357Z,96.60
2018-11-27T05:00:19.127Z,97.30
2018-11-27T05:02:47.857Z,96.60
2018-11-27T05:05:16.642Z,96.50
2018-11-27T05:07:45.515Z,96.40
2018-11-27T05:10:18.905Z,96.50
2018-11-27T05:12:47.532Z,96.50
2018-11-27T05:15:18.212Z,96.60
2018-11-27T05:17:49.230Z,96.60
2018-11-27T05:20:17.982Z,96.60
2018-11-27T05:22:46.593Z,96.60
2018-11-27T05:25:17.214Z,96.60
2018-11-27T05:27:47.989Z,96.60
2018-11-27T05:30:19.224Z,96.60
2018-11-27T05:32:47.952Z,96.70
2018-11-27T05:35:19.776Z,96.60
2018-11-27T05:37:49.209Z,96.80
2018-11-27T05:40:19.149Z,96.80
2018-11-27T05:42:48.672Z,96.60
2018-11-27T05:45:18.649Z,96.60
2018-11-27T05:47:47.408Z,96.60
2018-11-27T05:50:16.990Z,96.60
2018-11-27T05:52:45.953Z,96.60
2018-11-27T05:55:15.316Z,96.60
2018-11-27T05:57:45.053Z,96.60
2018-11-27T06:00:29.149Z,96.70
2018-11-27T06:02:58.908Z,96.60
2018-11-27T06:05:27.901Z,96.60
2018-11-27T06:07:57.255Z,96.60
2018-11-27T06:10:25.953Z,96.60
2018-11-27T06:12:54.750Z,96.60
2018-11-27T06:15:25.066Z,96.70
2018-11-27T06:17:57.965Z,96.70
2018-11-27T06:20:27.298Z,96.60
2018-11-27T06:22:56.038Z,96.60
2018-11-27T06:25:26.129Z,96.60
2018-11-27T06:27:57.648Z,97.10
2018-11-27T06:30:27.893Z,96.60
2018-11-27T06:32:56.578Z,96.60
2018-11-27T06:35:26.583Z,96.70
2018-11-27T06:37:55.359Z,96.70
2018-11-27T06:40:25.492Z,96.80
2018-11-27T06:42:54.250Z,96.90
2018-11-27T06:45:24.195Z,96.90
2018-11-27T06:47:52.779Z,96.90
2018-11-27T06:50:22.409Z,96.90
2018-11-27T06:52:51.185Z,96.90
2018-11-27T06:55:23.849Z,96.80
2018-11-27T06:57:52.880Z,96.80
2018-11-27T07:00:25.259Z,96.80
2018-11-27T07:02:54.179Z,96.80
2018-11-27T07:05:23.030Z,96.70
2018-11-27T07:07:51.634Z,96.70
2018-11-27T07:10:35.884Z,96.70
2018-11-27T07:13:11.089Z,96.60
2018-11-27T07:15:39.916Z,96.60
2018-11-27T07:18:09.471Z,96.60
2018-11-27T07:20:38.267Z,96.60
2018-11-27T07:23:07.347Z,96.60
2018-11-27T07:25:36.749Z,96.70
2018-11-27T07:28:05.520Z,96.70
2018-11-27T07:30:34.143Z,96.80
2018-11-27T07:33:02.949Z,96.70
2018-11-27T07:35:31.944Z,96.50
2018-11-27T07:38:00.614Z,96.50
2018-11-27T07:40:29.548Z,96.50
2018-11-27T07:43:00.372Z,96.40
2018-11-27T07:45:29.010Z,96.30
2018-11-27T07:47:57.647Z,96.10
2018-11-27T07:50:26.309Z,95.90
2018-11-27T07:52:54.999Z,95.80
2018-11-27T07:55:24.100Z,95.80
2018-11-27T07:57:53.819Z,96.00
2018-11-27T08:00:24.156Z,96.00
2018-11-27T08:02:55.715Z,95.90
2018-11-27T08:05:29.506Z,96.00
2018-11-27T08:07:58.392Z,96.00
2018-11-27T08:10:29.259Z,96.00
2018-11-27T08:12:58.122Z,95.90
2018-11-27T08:15:27.913Z,95.50
2018-11-27T08:17:56.650Z,95.70
2018-11-27T08:20:32.202Z,95.40
2018-11-27T08:23:01.087Z,95.50
2018-11-27T08:25:30.167Z,95.50
2018-11-27T08:27:58.930Z,95.40
2018-11-27T08:30:28.048Z,95.50
2018-11-27T08:32:57.233Z,95.30
2018-11-27T08:35:27.437Z,95.30
2018-11-27T08:37:59.422Z,95.30
2018-11-27T08:40:30.192Z,94.90
2018-11-27T08:42:58.961Z,94.60
2018-11-27T08:45:27.663Z,94.70
2018-11-27T08:47:56.570Z,94.50
2018-11-27T08:50:26.667Z,94.50
2018-11-27T08:52:56.549Z,94.30
2018-11-27T08:55:26.741Z,94.60
2018-11-27T08:57:55.699Z,94.40
2018-11-27T09:00:25.343Z,94.40
2018-11-27T09:02:53.962Z,94.50
2018-11-27T09:05:22.741Z,94.50
2018-11-27T09:07:51.540Z,94.50
2018-11-27T09:10:22.854Z,94.50
2018-11-27T09:12:51.642Z,94.50
2018-11-27T09:15:21.678Z,94.50
2018-11-27T09:17:58.487Z,94.50
2018-11-27T09:20:27.477Z,94.50
2018-11-27T09:22:56.216Z,94.50
2018-11-27T09:25:24.895Z,94.60
2018-11-27T09:27:53.531Z,94.50
2018-11-27T09:30:23.387Z,94.40
2018-11-27T09:32:52.102Z,94.30
2018-11-27T09:35:20.759Z,94.40
2018-11-27T09:37:49.584Z,94.30
2018-11-27T09:40:19.705Z,94.90
2018-11-27T09:42:48.335Z,94.40
2018-11-27T09:45:20.960Z,94.30
2018-11-27T09:47:51.749Z,94.30
2018-11-27T09:50:20.544Z,94.20
2018-11-27T09:52:49.331Z,94.40
2018-11-27T09:55:20.110Z,94.30
2018-11-27T09:57:49.094Z,94.30
2018-11-27T10:00:20.977Z,94.20
2018-11-27T10:02:50.698Z,94.40
2018-11-27T10:05:19.375Z,94.50
2018-11-27T10:07:48.032Z,94.20
2018-11-27T10:10:18.024Z,93.90
2018-11-27T10:12:46.658Z,94.00
2018-11-27T10:15:18.930Z,94.50
2018-11-27T10:17:49.213Z,94.20
2018-11-27T10:20:21.839Z,94.00
2018-11-27T10:22:50.453Z,93.90
2018-11-27T10:25:19.178Z,93.90
2018-11-27T10:27:47.845Z,93.70
2018-11-27T10:30:21.365Z,93.80
2018-11-27T10:32:51.141Z,93.90
2018-11-27T10:35:27.255Z,93.80
2018-11-27T10:37:56.005Z,93.90
2018-11-27T10:40:24.739Z,93.40
2018-11-27T10:42:53.856Z,93.20
2018-11-27T10:45:23.352Z,93.00
2018-11-27T10:47:53.639Z,92.90
2018-11-27T10:50:22.347Z,92.60
2018-11-27T10:52:52.128Z,92.30
2018-11-27T10:55:21.383Z,92.30
2018-11-27T10:57:50.103Z,91.90
2018-11-27T11:00:27.931Z,91.90
2018-11-27T11:03:01.240Z,92.10
2018-11-27T11:05:32.218Z,92.30
2018-11-27T11:08:00.894Z,92.20
2018-11-27T11:10:29.832Z,91.90
2018-11-27T11:12:58.556Z,91.80
2018-11-27T11:15:27.470Z,91.20
2018-11-27T11:17:57.273Z,90.50
2018-11-27T11:20:26.016Z,90.80
2018-11-27T11:22:54.709Z,90.60
2018-11-27T11:25:24.865Z,90.60
2018-11-27T11:27:56.060Z,90.90
2018-11-27T11:30:24.791Z,91.20
2018-11-27T11:32:53.451Z,90.90
2018-11-27T11:35:22.155Z,90.90
2018-11-27T11:37:51.451Z,91.00
2018-11-27T11:40:22.342Z,91.10
2018-11-27T11:42:52.169Z,91.40
2018-11-27T11:45:20.749Z,91.00
2018-11-27T11:47:49.731Z,90.80
2018-11-27T11:50:19.771Z,90.50
2018-11-27T11:52:53.044Z,90.70
2018-11-27T11:55:21.853Z,91.00
2018-11-27T11:57:50.450Z,90.90
2018-11-27T12:00:22.625Z,91.00
2018-11-27T12:02:51.290Z,90.90
2018-11-27T12:05:24.924Z,91.00
2018-11-27T12:07:49.009Z,91.00
2018-11-27T12:10:17.784Z,91.10
2018-11-27T12:12:47.920Z,91.20
2018-11-27T12:15:17.635Z,91.10
2018-11-27T12:17:47.828Z,91.40
2018-11-27T12:20:17.595Z,91.30
2018-11-27T12:22:52.554Z,91.60
2018-11-27T12:25:24.159Z,91.50
2018-11-27T12:27:50.585Z,91.30
2018-11-27T12:30:23.729Z,91.50
2018-11-27T12:32:52.596Z,91.70
2018-11-27T12:35:22.167Z,91.70
2018-11-27T12:37:51.028Z,91.30
2018-11-27T12:40:26.318Z,91.30
2018-11-27T12:42:55.844Z,91.60
2018-11-27T12:45:28.956Z,91.60
2018-11-27T12:47:58.652Z,91.50
2018-11-27T12:50:50.355Z,91.60
2018-11-27T12:53:19.325Z,91.80
2018-11-27T12:55:50.075Z,91.80
2018-11-27T12:58:18.641Z,91.70
2018-11-27T13:00:47.723Z,91.70
2018-11-27T13:03:17.759Z,91.90
2018-11-27T13:05:47.185Z,91.80
2018-11-27T13:08:24.393Z,92.00
2018-11-27T13:10:53.311Z,92.00
2018-11-27T13:13:22.066Z,92.00
2018-11-27T13:15:50.832Z,92.20
2018-11-27T13:18:19.621Z,92.10
2018-11-27T13:20:48.422Z,92.30
2018-11-27T13:23:17.161Z,92.10
2018-11-27T13:25:46.110Z,92.00
2018-11-27T13:28:15.303Z,92.00
2018-11-27T13:31:01.362Z,91.90
2018-11-27T13:33:33.123Z,91.70
2018-11-27T13:36:01.838Z,91.30
2018-11-27T13:38:30.536Z,91.00
2018-11-27T13:40:59.228Z,91.30
2018-11-27T13:43:29.241Z,91.10
2018-11-27T13:45:59.241Z,91.10
2018-11-27T13:48:27.944Z,91.10
2018-11-27T13:50:56.702Z,91.50
2018-11-27T13:53:25.555Z,91.00
2018-11-27T13:55:54.202Z,91.30
2018-11-27T13:58:22.971Z,91.60
2018-11-27T14:00:51.598Z,91.60
2018-11-27T14:03:20.247Z,91.80
2018-11-27T14:05:49.153Z,91.70
2018-11-27T14:08:17.894Z,91.80
2018-11-27T14:10:46.521Z,91.90
2018-11-27T14:13:15.409Z,91.90
2018-11-27T14:15:44.063Z,92.10
2018-11-27T14:18:12.843Z,92.20
2018-11-27T14:20:41.535Z,92.20
2018-11-27T14:23:10.315Z,92.30
2018-11-27T14:25:38.972Z,92.20
2018-11-27T14:28:07.719Z,92.30
2018-11-27T14:30:36.402Z,92.10
2018-11-27T14:33:04.754Z,91.90
2018-11-27T14:35:33.395Z,91.90
2018-11-27T14:38:02.100Z,91.90
2018-11-27T14:40:30.901Z,91.90
2018-11-27T14:42:59.560Z,91.80
2018-11-27T14:45:29.282Z,91.80
2018-11-27T14:47:59.125Z,91.60
2018-11-27T14:50:27.910Z,91.70
2018-11-27T14:52:56.622Z,91.60
2018-11-27T14:55:27.733Z,91.40
2018-11-27T14:57:56.487Z,91.40
2018-11-27T15:00:25.880Z,91.40
2018-11-27T15:02:54.762Z,91.40
2018-11-27T15:05:30.846Z,91.50
2018-11-27T15:07:59.463Z,91.60
2018-11-27T15:10:28.955Z,91.50
2018-11-27T15:12:57.677Z,91.50
2018-11-27T15:15:26.546Z,91.70
2018-11-27T15:17:55.331Z,91.60
2018-11-27T15:20:24.343Z,91.90
2018-11-27T15:22:52.967Z,91.90
2018-11-27T15:25:21.642Z,92.00
2018-11-27T15:27:50.639Z,92.10
2018-11-27T15:30:21.638Z,92.10
2018-11-27T15:32:51.109Z,92.10
2018-11-27T15:35:19.962Z,92.10
2018-11-27T15:37:48.593Z,92.20
2018-11-27T15:40:20.878Z,92.40
2018-11-27T15:42:50.749Z,92.40
2018-11-27T15:45:21.989Z,92.50
2018-11-27T15:47:51.153Z,92.60
2018-11-27T15:50:19.979Z,92.60
2018-11-27T15:52:49.249Z,92.40
2018-11-27T15:55:20.069Z,92.40
2018-11-27T15:57:50.343Z,92.40
2018-11-27T16:00:19.861Z,92.40
2018-11-27T16:02:48.743Z,92.00
2018-11-27T16:05:18.445Z,91.70
2018-11-27T16:07:47.199Z,92.10
2018-11-27T16:10:17.031Z,91.80
2018-11-27T16:12:45.813Z,91.90
2018-11-27T16:15:15.966Z,91.90
2018-11-27T16:17:45.233Z,91.80
2018-11-27T16:20:18.514Z,91.90
2018-11-27T16:22:48.963Z,91.80
2018-11-27T16:25:18.866Z,91.90
2018-11-27T16:27:47.734Z,91.90
2018-11-27T16:30:18.369Z,92.00
2018-11-27T16:32:48.054Z,91.80
2018-11-27T16:35:16.806Z,92.00
2018-11-27T16:37:48.761Z,92.00
2018-11-27T16:40:21.665Z,92.20
2018-11-27T16:42:52.060Z,92.40
2018-11-27T16:45:21.970Z,92.50
2018-11-27T16:47:51.817Z,92.50
2018-11-27T16:50:20.894Z,92.60
2018-11-27T16:52:50.069Z,92.70
2018-11-27T16:55:21.475Z,92.80
2018-11-27T16:57:52.169Z,92.80
2018-11-27T17:00:22.987Z,92.90
2018-11-27T17:02:53.179Z,92.80
2018-11-27T17:05:22.140Z,92.90
2018-11-27T17:07:51.141Z,93.10
2018-11-27T17:10:21.256Z,93.40
2018-11-27T17:12:51.871Z,93.40
2018-11-27T17:15:21.696Z,93.40
2018-11-27T17:17:50.616Z,93.40
2018-11-27T17:20:31.310Z,93.30
2018-11-27T17:23:01.358Z,93.30
2018-11-27T17:25:30.193Z,93.10
2018-11-27T17:28:04.743Z,93.20
2018-11-27T17:30:55.050Z,93.20
2018-11-27T17:33:26.091Z,93.00
2018-11-27T17:35:55.117Z,92.70
2018-11-27T17:38:24.864Z,92.80
2018-11-27T17:40:53.880Z,92.60
2018-11-27T17:43:22.938Z,92.50
2018-11-27T17:45:52.635Z,92.50
2018-11-27T17:48:21.446Z,92.70
2018-11-27T17:50:50.179Z,92.40
2018-11-27T17:53:18.990Z,92.20
2018-11-27T17:55:48.014Z,92.30
2018-11-27T17:58:16.545Z,92.40
2018-11-27T18:00:46.487Z,92.40
2018-11-27T18:03:19.076Z,92.50
2018-11-27T18:05:47.811Z,92.50
2018-11-27T18:08:17.931Z,92.30
2018-11-27T18:10:48.132Z,92.20
2018-11-27T18:13:18.522Z,92.20
2018-11-27T18:15:47.735Z,92.10
2018-11-27T18:18:16.514Z,92.20
2018-11-27T18:20:48.448Z,92.20
2018-11-27T18:23:17.407Z,92.00
2018-11-27T18:25:46.453Z,92.00
2018-11-27T18:28:15.594Z,92.00
2018-11-27T18:30:45.662Z,92.00
2018-11-27T18:33:13.653Z,91.90
2018-11-27T18:35:42.321Z,92.00
2018-11-27T18:38:11.187Z,92.00
2018-11-27T18:40:40.008Z,92.50
2018-11-27T18:43:08.873Z,92.50
2018-11-27T18:45:37.595Z,92.60
2018-11-27T18:48:06.593Z,92.60
2018-11-27T18:50:36.146Z,92.60
2018-11-27T18:53:04.797Z,92.80
2018-11-27T18:55:33.659Z,92.80
2018-11-27T18:58:02.454Z,93.10
2018-11-27T19:00:32.385Z,93.20
2018-11-27T19:03:01.709Z,93.10
2018-11-27T19:05:30.660Z,93.30
2018-11-27T19:07:59.540Z,93.10
2018-11-27T19:10:30.606Z,93.20
2018-11-27T19:12:59.391Z,93.20
2018-11-27T19:15:43.676Z,93.30
2018-11-27T19:18:18.549Z,93.10
2018-11-27T19:20:47.346Z,93.50
2018-11-27T19:23:17.127Z,93.40
2018-11-27T19:25:46.136Z,93.40
2018-11-27T19:28:15.107Z,93.50
2018-11-27T19:30:43.811Z,93.30
2018-11-27T19:33:12.546Z,93.70
2018-11-27T19:35:42.288Z,93.60
2018-11-27T19:38:15.104Z,93.80
2018-11-27T19:40:46.758Z,93.70
2018-11-27T19:43:23.676Z,93.90
2018-11-27T19:45:55.056Z,93.80
2018-11-27T19:48:26.786Z,93.80
2018-11-27T19:50:59.172Z,94.10
2018-11-27T19:53:32.189Z,93.90
2018-11-27T19:56:10.695Z,93.90
2018-11-27T19:58:42.070Z,93.90
2018-11-27T20:01:15.845Z,94.10
2018-11-27T20:03:49.653Z,94.00
2018-11-27T20:06:26.322Z,93.80
2018-11-27T20:09:03.146Z,93.90
2018-11-27T20:11:35.342Z,93.80
2018-11-27T20:14:11.799Z,93.80
2018-11-27T20:16:42.738Z,93.80
2018-11-27T20:19:22.798Z,93.70
2018-11-27T20:21:56.388Z,93.90
2018-11-27T20:24:32.862Z,93.90
2018-11-27T20:27:06.787Z,93.70
2018-11-27T20:29:38.180Z,93.60
2018-11-27T20:32:15.646Z,93.40
2018-11-27T20:34:44.469Z,93.50
2018-11-27T20:37:13.094Z,93.70
2018-11-27T20:39:41.743Z,93.60
2018-11-27T20:42:10.553Z,93.60
2018-11-27T20:44:39.457Z,93.60
2018-11-27T20:47:08.269Z,93.60
2018-11-27T20:49:37.117Z,93.50
2018-11-27T20:52:05.992Z,93.30
2018-11-27T20:54:34.789Z,93.40
2018-11-27T20:57:03.577Z,93.50
2018-11-27T20:59:32.313Z,93.60
2018-11-27T21:02:01.113Z,93.60
2018-11-27T21:04:29.743Z,93.80
2018-11-27T21:06:58.448Z,93.70
2018-11-27T21:09:27.017Z,93.80
2018-11-27T21:11:55.740Z,93.70
2018-11-27T21:14:24.442Z,93.60
2018-11-27T21:16:53.331Z,93.60
2018-11-27T21:19:22.108Z,93.50
2018-11-27T21:21:50.677Z,93.70
2018-11-27T21:24:19.242Z,93.70
2018-11-27T21:26:47.939Z,93.60
2018-11-27T21:29:16.605Z,93.60
2018-11-27T21:31:45.400Z,93.80
2018-11-27T21:34:14.053Z,93.80
2018-11-27T21:36:42.826Z,93.90
2018-11-27T21:39:11.688Z,93.90
2018-11-27T21:41:40.462Z,94.20
2018-11-27T21:44:09.341Z,93.80
2018-11-27T21:46:37.919Z,93.90
2018-11-27T21:49:06.619Z,94.00
2018-11-27T21:51:35.176Z,94.40
2018-11-27T21:54:04.617Z,93.90
2018-11-27T21:56:33.211Z,94.30
2018-11-27T21:59:01.910Z,94.10
2018-11-27T22:01:30.454Z,94.40
2018-11-27T22:03:59.252Z,94.40
2018-11-27T22:06:27.953Z,94.50
2018-11-27T22:08:56.545Z,94.30
2018-11-27T22:11:25.130Z,94.40
2018-11-27T22:13:53.910Z,94.50
2018-11-27T22:16:22.632Z,94.30
2018-11-27T22:18:51.241Z,94.20
2018-11-27T22:21:20.008Z,94.40
2018-11-27T22:23:48.674Z,94.30
2018-11-27T22:26:17.413Z,94.50
2018-11-27T22:28:46.021Z,94.60
2018-11-27T22:31:14.630Z,94.80
2018-11-27T22:33:43.419Z,95.00
2018-11-27T22:36:12.206Z,94.90
2018-11-27T22:38:40.832Z,95.00
2018-11-27T22:41:09.847Z,95.00
2018-11-27T22:43:38.645Z,95.40
2018-11-27T22:46:07.346Z,95.10
2018-11-27T22:48:36.116Z,95.10
2018-11-27T22:51:04.982Z,95.20
2018-11-27T22:53:33.926Z,95.20
2018-11-27T22:56:02.617Z,95.30
2018-11-27T22:58:31.370Z,95.40
2018-11-27T23:01:00.255Z,95.30
2018-11-27T23:03:29.193Z,95.40
2018-11-27T23:05:57.887Z,95.40
2018-11-27T23:08:26.625Z,95.40
2018-11-27T23:10:55.584Z,95.60
2018-11-27T23:13:24.331Z,95.60
2018-11-27T23:15:53.226Z,96.00
2018-11-27T23:18:21.832Z,95.70
2018-11-27T23:20:50.597Z,95.70
2018-11-27T23:23:19.325Z,95.70
2018-11-27T23:25:48.019Z,95.70
2018-11-27T23:28:16.657Z,95.80
2018-11-27T23:30:45.266Z,95.80
2018-11-27T23:33:14.128Z,95.80
2018-11-27T23:35:42.916Z,95.90
2018-11-27T23:38:11.598Z,95.90
2018-11-27T23:40:40.917Z,95.80
2018-11-27T23:43:09.660Z,95.70
2018-11-27T23:45:38.423Z,95.60
2018-11-27T23:48:07.638Z,95.70
2018-11-27T23:50:36.363Z,95.80
2018-11-27T23:53:05.214Z,96.00
2018-11-27T23:55:34.047Z,96.10
2018-11-27T23:58:02.767Z,96.10
